KGON

Groton-New London Airport

Groton (New London), Connecticut, USA
METAR KGON 181356Z 25007KT 7SM BKN007 OVC110 25/23 A2983 RMK AO2 CIG 006V011 SLP102 T02500233
Observed Flight Rules
Aug-18 @ 13:56 UTC (56 minutes ago) Instrument Flight Rules
Wind Visibility Clouds
250° at 7 knots 7 miles
  • Broken at 700' AGL
  • Overcast at 11,000' AGL
Temperatures Readings
Current 25°C / 77°F
Dewpoint 23°C / 73°F
Humidity 89%
Altimeter 29.83" Hg
Pressure 1010.2 hPa
Elevation 3
METAR KGON 181356Z 25007KT 7SM BKN007 OVC110 25/23 A2983 RMK AO2 CIG 006V011 SLP102 T02500233
Observed Flight Rules
Aug-18 @ 13:56 UTC
(56 minutes ago)
IFR
Wind Visibility
250° at 7 knots 7 miles
Clouds
  • Broken at 700' AGL
  • Overcast at 11,000' AGL
Temperature Dewpoint
25°C / 77°F 23°C / 73°F
Humidity Altimeter Pressure
89% 29.83" Hg 1010.2 hPa